METAR LDZA 052130Z VRB01KT 9999 -RA OVC028 18/15 Q1016 NOSIG =
METAR LDZA 052100Z 05003KT 350V110 9999 BKN030 17/16 Q1016 NOSIG =
METAR LDZA 052030Z 01003KT 310V060 9999 SCT028 BKN046 17/15 Q1016 NOSIG =
METAR LDZA 052000Z VRB01KT 9999 -RA SCT025 BKN035 17/16 Q1016 NOSIG =
METAR LDZA 051930Z 33003KT 290V020 9999 -RA BKN023 17/16 Q1016 RERA NOSIG =
METAR LDZA 051900Z 36004KT 310V050 8000 RA BKN020 OVC040 17/16 Q1016 BECMG -RA =
METAR LDZA 051830Z 04005KT 360V080 5000 RA SCT023 OVC043 17/16 Q1016 NOSIG =
METAR LDZA 051800Z 03006KT 350V070 8000 RA FEW023 OVC043 17/16 Q1016 NOSIG =
METAR LDZA 051730Z 03011KT 010V100 7000 -RA SCT025 OVC045 18/15 Q1016 NOSIG =
METAR LDZA 051700Z 03008KT 340V070 9999 SCT025 OVC045 19/15 Q1015 NOSIG =
METAR LDZA 051630Z 03008KT 340V070 9999 BKN025 OVC045 19/15 Q1015 NOSIG =
METAR LDZA 051600Z 04008KT 340V100 9999 BKN025 OVC045 19/15 Q1016 NOSIG =
METAR LDZA 051530Z 03009KT 360V070 9999 SCT023 19/15 Q1015 NOSIG =
METAR LDZA 051500Z 04012KT 340V100 9999 BKN023 20/15 Q1015 NOSIG =
METAR LDZA 051430Z 03013KT 340V100 9999 SCT023 20/15 Q1015 TEMPO 03015G25KT =
METAR LDZA 051400Z 04011KT 360V090 9999 BKN023 20/15 Q1015 TEMPO 03015G25KT =
METAR LDZA 051330Z 04013KT 330V090 9999 BKN023 20/15 Q1015 TEMPO 03015G25KT =
METAR LDZA 051300Z 03013KT 350V090 9999 BKN023 19/14 Q1015 TEMPO 03015G25KT =
METAR LDZA 051230Z 02013KT 330V070 9999 BKN020 19/14 Q1015 TEMPO 03015G25KT =
METAR LDZA 051200Z 04014KT 360V080 9999 BKN023 19/14 Q1015 TEMPO 03015G25KT =
METAR LDZA 051130Z 03014KT 350V060 9999 BKN023 19/14 Q1015 TEMPO 03015G25KT =
METAR LDZA 051100Z 02012KT 340V050 9999 BKN020 OVC028 18/14 Q1015 NOSIG =
METAR LDZA 051030Z 03013KT 340V080 9999 OVC020 18/14 Q1015 NOSIG =
METAR LDZA 051000Z 03011KT 340V100 9999 OVC018 17/14 Q1015 NOSIG =
METAR LDZA 050930Z 03012KT 350V080 9999 OVC018 17/14 Q1015 NOSIG =
METAR LDZA 050900Z 03010KT 340V080 9999 OVC020 17/14 Q1015 NOSIG =
METAR LDZA 050830Z 03010KT 340V060 9999 OVC020 16/13 Q1015 NOSIG =
METAR LDZA 050800Z 02009KT 350V060 9999 FEW007 OVC023 16/13 Q1015 NOSIG =
METAR LDZA 050730Z 02009KT 290V070 9999 FEW007 OVC025 16/13 Q1015 NOSIG =
METAR LDZA 050700Z 03009KT 360V100 9999 FEW007 OVC025 16/13 Q1014 NOSIG =
METAR LDZA 050630Z 05004KT 350V120 9999 -DZ FEW007 OVC025 15/14 Q1015 NOSIG =
METAR LDZA 050600Z 02007KT 340V070 7000 -DZ FEW010 OVC025 15/13 Q1014 NOSIG =
METAR LDZA 050530Z 03003KT 350V100 9999 -RA FEW010 OVC022 15/14 Q1014 NOSIG =
METAR LDZA 050500Z VRB01KT 8000 -RA OVC023 15/14 Q1014 NOSIG =
METAR LDZA 050430Z VRB02KT 7000 -RA FEW010 OVC027 15/13 Q1014 NOSIG =
METAR LDZA 050400Z VRB02KT 9999 -RA FEW010 OVC027 15/13 Q1014 NOSIG =
METAR LDZA 050330Z 00000KT 9999 -RA OVC030 15/13 Q1013 NOSIG =
METAR LDZA 050300Z 03005KT 330V080 9999 -RA BKN037 15/13 Q1013 RERA NOSIG =
METAR LDZA 050230Z 01006KT 340V050 9999 RA BKN020 15/13 Q1013 NOSIG =
METAR LDZA 050200Z 11004KT 9999 BKN045 15/13 Q1013 NOSIG =
METAR LDZA 050130Z VRB02KT 9999 BKN049 15/13 Q1013 NOSIG =
METAR LDZA 050100Z VRB01KT 9999 -RA FEW017 SCT049 15/13 Q1013 NOSIG =
METAR LDZA 050030Z 03010KT 340V140 9999 -RA FEW017 SCT049 15/13 Q1012 NOSIG =
METAR LDZA 050000Z 04005KT 330V140 9999 -RA FEW015 15/13 Q1012 RERA NOSIG =
METAR LDZA 042330Z 05011KT 010V100 9999 RA FEW015 15/13 Q1012 NOSIG =
METAR LDZA 042300Z 03010KT 350V080 9999 -RA FEW015 15/13 Q1012 NOSIG =
METAR COR LDZA 042230Z 04016KT 350V110 9999 -RA FEW015 16/13 Q1012 RERA NOSIG =
METAR LDZA 042200Z 04021KT 010V080 8000 RA FEW015 BKN047 16/15 Q1011 NOSIG =
METAR LDZA 042130Z 05008KT 010V100 6000 +RA SCT015 BKN030 16/15 Q1013 TEMPO TSRA SCT015 FEW020CB BKN030 =
METAR LDZA 042100Z VRB01KT 6000 +RA BKN017 17/15 Q1013 TEMPO TSRA SCT015 FEW030CB BKN040 =
METAR LDZA 042030Z VRB01KT 8000 RA BKN015 OVC043 17/15 Q1012 RETS TEMPO TSRA SCT015 FEW030CB BKN040=
METAR LDZA 042000Z VRB05KT 9999 TSRA SCT015 FEW030CB OVC043 18/15 Q1012 NOSIG =
METAR LDZA 041930Z VRB07KT 9999 RA FEW023 FEW030CB OVC040 18/16 Q1010 RETS TEMPO 04020G30KT TSRA =
METAR LDZA 041900Z 02012KT 340V070 9999 RA VCTS FEW017 FEW030CB BKN040 19/16 Q1009 TEMPO 04020G30KT TSRA =
METAR LDZA 041830Z 03017KT 340V070 9999 -RA VCTS SCT017 FEW030CB BKN045 20/16 Q1008 TEMPO 04020G30KT TSRA =
METAR LDZA 041800Z 03014G27KT 350V090 9999 SCT017 BKN045 22/17 Q1008 TEMPO 04015KT TSRA FEW025CB =
METAR LDZA 041730Z 02006KT 330V090 CAVOK 22/19 Q1008 BECMG 04014KT =
METAR LDZA 041700Z 03008KT 340V080 CAVOK 21/18 Q1007 BECMG 04014KT =
METAR LDZA 041630Z 10004KT 080V140 CAVOK 21/18 Q1007 BECMG 04014KT =
METAR LDZA 041600Z VRB01KT CAVOK 22/18 Q1007 BECMG 04014KT =
METAR LDZA 041530Z 07005KT 020V130 CAVOK 22/19 Q1007 NOSIG =
METAR LDZA 041500Z 05004KT 340V140 9999 FEW015 22/18 Q1006 NOSIG =
METAR LDZA 041430Z 11005KT 080V140 9999 FEW010 SCT030 21/17 Q1007 RETS NOSIG =
METAR LDZA 041400Z VRB01KT 9999 -TSRA FEW025CB FEW033 22/20 Q1006 RERA TEMPO 14015G25KT =
METAR LDZA 041330Z 09006KT 060V130 9999 TSRA FEW025CB SCT040 22/19 Q1006 TEMPO 14015G25KT 3000 =
METAR LDZA 041300Z 09007KT 040V140 9999 -RA FEW027 23/19 Q1006 RETS TEMPO 25015G25KT 3000 TSRA FEW025CB =
METAR LDZA 041230Z 08008KT 030V130 9999 -RA FEW025TCU FEW038 23/19 Q1006 RETS TEMPO 25015G25KT 3000 TSRA FEW025CB =
METAR LDZA 041200Z 08007KT 020V120 9999 FEW020TCU BKN038 24/19 Q1006 TEMPO 25015G25KT 3000 TSRA SCT025CB =
METAR LDZA 041130Z 10009KT 060V160 9999 FEW020 BKN035 25/20 Q1006 TEMPO FM1200 TSRA FEW025CB =
METAR LDZA 041100Z 03004KT 330V100 9999 FEW023 26/20 Q1006 NOSIG =
METAR LDZA 041030Z 33003KT 240V040 CAVOK 25/19 Q1005 NOSIG =
METAR LDZA 041000Z 02004KT 310V090 9999 FEW014 24/21 Q1005 NOSIG =